sensor_id;sensor_type;location;lat;lon;timestamp;temperature;humidity
39951;DHT22;25629;51.444;-2.606;2022-10-16T00:01:36;13.20;99.90
39951;DHT22;25629;51.444;-2.606;2022-10-16T00:04:03;13.20;99.90
39951;DHT22;25629;51.444;-2.606;2022-10-16T00:06:29;13.20;99.90
39951;DHT22;25629;51.444;-2.606;2022-10-16T00:08:56;13.20;99.90
39951;DHT22;25629;51.444;-2.606;2022-10-16T00:11:31;13.10;99.90
39951;DHT22;25629;51.444;-2.606;2022-10-16T00:14:01;13.10;99.90
39951;DHT22;25629;51.444;-2.606;2022-10-16T00:16:28;13.10;99.90
39951;DHT22;25629;51.444;-2.606;2022-10-16T00:18:54;13.10;99.90
39951;DHT22;25629;51.444;-2.606;2022-10-16T00:21:23;13.10;99.90
39951;DHT22;25629;51.444;-2.606;2022-10-16T00:24:08;13.10;99.90
39951;DHT22;25629;51.444;-2.606;2022-10-16T00:26:35;13.00;99.90
39951;DHT22;25629;51.444;-2.606;2022-10-16T00:29:02;13.10;99.90
39951;DHT22;25629;51.444;-2.606;2022-10-16T00:31:28;13.10;99.90
39951;DHT22;25629;51.444;-2.606;2022-10-16T00:33:55;13.00;99.90
39951;DHT22;25629;51.444;-2.606;2022-10-16T00:36:23;13.00;99.90
39951;DHT22;25629;51.444;-2.606;2022-10-16T00:38:51;13.00;99.90
39951;DHT22;25629;51.444;-2.606;2022-10-16T00:41:18;13.00;99.90
39951;DHT22;25629;51.444;-2.606;2022-10-16T00:43:56;13.00;99.90
39951;DHT22;25629;51.444;-2.606;2022-10-16T00:46:35;13.00;99.90
39951;DHT22;25629;51.444;-2.606;2022-10-16T00:49:05;13.00;99.90
39951;DHT22;25629;51.444;-2.606;2022-10-16T00:51:42;13.00;99.90
39951;DHT22;25629;51.444;-2.606;2022-10-16T00:54:13;13.00;99.90
39951;DHT22;25629;51.444;-2.606;2022-10-16T00:56:41;13.00;99.90
39951;DHT22;25629;51.444;-2.606;2022-10-16T00:59:14;12.90;99.90
39951;DHT22;25629;51.444;-2.606;2022-10-16T01:01:41;12.90;99.90
39951;DHT22;25629;51.444;-2.606;2022-10-16T01:04:06;12.80;99.90
39951;DHT22;25629;51.444;-2.606;2022-10-16T01:09:24;12.80;99.90
39951;DHT22;25629;51.444;-2.606;2022-10-16T01:12:09;12.80;99.90
39951;DHT22;25629;51.444;-2.606;2022-10-16T01:17:15;12.70;99.90
39951;DHT22;25629;51.444;-2.606;2022-10-16T01:22:20;12.70;99.90
39951;DHT22;25629;51.444;-2.606;2022-10-16T01:24:50;12.60;99.90
39951;DHT22;25629;51.444;-2.606;2022-10-16T01:30:07;12.60;99.90
39951;DHT22;25629;51.444;-2.606;2022-10-16T01:32:45;12.60;99.90
39951;DHT22;25629;51.444;-2.606;2022-10-16T01:35:32;12.50;99.90
39951;DHT22;25629;51.444;-2.606;2022-10-16T01:40:40;12.50;99.90
39951;DHT22;25629;51.444;-2.606;2022-10-16T01:43:08;12.50;99.90
39951;DHT22;25629;51.444;-2.606;2022-10-16T01:45:36;12.50;99.90
39951;DHT22;25629;51.444;-2.606;2022-10-16T01:48:03;12.50;99.90
39951;DHT22;25629;51.444;-2.606;2022-10-16T01:50:37;12.50;99.90
39951;DHT22;25629;51.444;-2.606;2022-10-16T01:53:05;12.50;99.90
39951;DHT22;25629;51.444;-2.606;2022-10-16T01:55:35;12.40;99.90
39951;DHT22;25629;51.444;-2.606;2022-10-16T01:58:05;12.40;99.90
39951;DHT22;25629;51.444;-2.606;2022-10-16T02:00:33;12.40;99.90
39951;DHT22;25629;51.444;-2.606;2022-10-16T02:03:02;12.40;99.90
39951;DHT22;25629;51.444;-2.606;2022-10-16T02:05:46;12.30;99.90
39951;DHT22;25629;51.444;-2.606;2022-10-16T02:08:12;12.30;99.90
39951;DHT22;25629;51.444;-2.606;2022-10-16T02:10:39;12.20;99.90
39951;DHT22;25629;51.444;-2.606;2022-10-16T02:13:28;12.20;99.90
39951;DHT22;25629;51.444;-2.606;2022-10-16T02:15:55;12.10;99.90
39951;DHT22;25629;51.444;-2.606;2022-10-16T02:18:21;12.10;99.90
39951;DHT22;25629;51.444;-2.606;2022-10-16T02:21:01;12.10;99.90
39951;DHT22;25629;51.444;-2.606;2022-10-16T02:26:12;12.10;99.90
39951;DHT22;25629;51.444;-2.606;2022-10-16T02:28:53;12.10;99.90
39951;DHT22;25629;51.444;-2.606;2022-10-16T02:31:25;12.20;99.90
39951;DHT22;25629;51.444;-2.606;2022-10-16T02:33:55;12.10;99.90
39951;DHT22;25629;51.444;-2.606;2022-10-16T02:36:22;12.10;99.90
39951;DHT22;25629;51.444;-2.606;2022-10-16T02:38:48;12.10;99.90
39951;DHT22;25629;51.444;-2.606;2022-10-16T02:41:14;12.10;99.90
39951;DHT22;25629;51.444;-2.606;2022-10-16T02:43:40;12.10;99.90
39951;DHT22;25629;51.444;-2.606;2022-10-16T02:46:06;12.10;99.90
39951;DHT22;25629;51.444;-2.606;2022-10-16T02:48:32;12.10;99.90
39951;DHT22;25629;51.444;-2.606;2022-10-16T02:50:57;12.10;99.90
39951;DHT22;25629;51.444;-2.606;2022-10-16T02:53:23;12.10;99.90
39951;DHT22;25629;51.444;-2.606;2022-10-16T02:55:49;12.10;99.90
39951;DHT22;25629;51.444;-2.606;2022-10-16T02:58:15;12.00;99.90
39951;DHT22;25629;51.444;-2.606;2022-10-16T03:00:41;12.10;99.90
39951;DHT22;25629;51.444;-2.606;2022-10-16T03:03:07;12.00;99.90
39951;DHT22;25629;51.444;-2.606;2022-10-16T03:05:33;12.00;99.90
39951;DHT22;25629;51.444;-2.606;2022-10-16T03:07:59;12.00;99.90
39951;DHT22;25629;51.444;-2.606;2022-10-16T03:10:26;12.00;99.90
39951;DHT22;25629;51.444;-2.606;2022-10-16T03:12:52;11.90;99.90
39951;DHT22;25629;51.444;-2.606;2022-10-16T03:15:18;11.90;99.90
39951;DHT22;25629;51.444;-2.606;2022-10-16T03:17:44;11.90;99.90
39951;DHT22;25629;51.444;-2.606;2022-10-16T03:20:10;11.90;99.90
39951;DHT22;25629;51.444;-2.606;2022-10-16T03:22:36;11.80;99.90
39951;DHT22;25629;51.444;-2.606;2022-10-16T03:25:02;11.80;99.90
39951;DHT22;25629;51.444;-2.606;2022-10-16T03:27:28;11.90;99.90
39951;DHT22;25629;51.444;-2.606;2022-10-16T03:29:53;11.90;99.90
39951;DHT22;25629;51.444;-2.606;2022-10-16T03:32:19;12.00;99.90
39951;DHT22;25629;51.444;-2.606;2022-10-16T03:34:45;12.00;99.90
39951;DHT22;25629;51.444;-2.606;2022-10-16T03:37:11;11.90;99.90
39951;DHT22;25629;51.444;-2.606;2022-10-16T03:39:37;11.90;99.90
39951;DHT22;25629;51.444;-2.606;2022-10-16T03:42:03;11.80;99.90
39951;DHT22;25629;51.444;-2.606;2022-10-16T03:44:28;11.70;99.90
39951;DHT22;25629;51.444;-2.606;2022-10-16T03:46:54;11.60;99.90
39951;DHT22;25629;51.444;-2.606;2022-10-16T03:49:20;11.50;99.90
39951;DHT22;25629;51.444;-2.606;2022-10-16T03:51:46;11.40;99.90
39951;DHT22;25629;51.444;-2.606;2022-10-16T03:54:12;11.30;99.90
39951;DHT22;25629;51.444;-2.606;2022-10-16T03:56:38;11.20;99.90
39951;DHT22;25629;51.444;-2.606;2022-10-16T03:59:04;11.20;99.90
39951;DHT22;25629;51.444;-2.606;2022-10-16T04:01:29;11.20;99.90
39951;DHT22;25629;51.444;-2.606;2022-10-16T04:03:55;11.10;99.90
39951;DHT22;25629;51.444;-2.606;2022-10-16T04:06:21;11.20;99.90
39951;DHT22;25629;51.444;-2.606;2022-10-16T04:08:47;11.10;99.90
39951;DHT22;25629;51.444;-2.606;2022-10-16T04:11:13;11.10;99.90
39951;DHT22;25629;51.444;-2.606;2022-10-16T04:13:39;11.10;99.90
39951;DHT22;25629;51.444;-2.606;2022-10-16T04:16:05;11.00;99.90
39951;DHT22;25629;51.444;-2.606;2022-10-16T04:18:31;11.10;99.90
39951;DHT22;25629;51.444;-2.606;2022-10-16T04:20:57;11.00;99.90
39951;DHT22;25629;51.444;-2.606;2022-10-16T04:23:27;11.00;99.90
39951;DHT22;25629;51.444;-2.606;2022-10-16T04:25:52;11.00;99.90
39951;DHT22;25629;51.444;-2.606;2022-10-16T04:28:18;11.00;99.90
39951;DHT22;25629;51.444;-2.606;2022-10-16T04:30:44;10.90;99.90
39951;DHT22;25629;51.444;-2.606;2022-10-16T04:33:10;10.90;99.90
39951;DHT22;25629;51.444;-2.606;2022-10-16T04:35:36;10.90;99.90
39951;DHT22;25629;51.444;-2.606;2022-10-16T04:38:01;10.90;99.90
39951;DHT22;25629;51.444;-2.606;2022-10-16T04:40:27;10.80;99.90
39951;DHT22;25629;51.444;-2.606;2022-10-16T04:42:53;10.80;99.90
39951;DHT22;25629;51.444;-2.606;2022-10-16T04:45:19;10.80;99.90
39951;DHT22;25629;51.444;-2.606;2022-10-16T04:47:45;10.80;99.90
39951;DHT22;25629;51.444;-2.606;2022-10-16T04:50:10;10.80;99.90
39951;DHT22;25629;51.444;-2.606;2022-10-16T04:52:36;10.80;99.90
39951;DHT22;25629;51.444;-2.606;2022-10-16T04:55:02;10.90;99.90
39951;DHT22;25629;51.444;-2.606;2022-10-16T04:57:29;10.90;99.90
39951;DHT22;25629;51.444;-2.606;2022-10-16T04:59:55;11.00;99.90
39951;DHT22;25629;51.444;-2.606;2022-10-16T05:02:21;11.00;99.90
39951;DHT22;25629;51.444;-2.606;2022-10-16T05:04:46;11.00;99.90
39951;DHT22;25629;51.444;-2.606;2022-10-16T05:07:12;11.00;99.90
39951;DHT22;25629;51.444;-2.606;2022-10-16T05:09:38;11.10;99.90
39951;DHT22;25629;51.444;-2.606;2022-10-16T05:12:04;11.10;99.90
39951;DHT22;25629;51.444;-2.606;2022-10-16T05:14:30;11.10;99.90
39951;DHT22;25629;51.444;-2.606;2022-10-16T05:16:56;11.10;99.90
39951;DHT22;25629;51.444;-2.606;2022-10-16T05:19:22;11.10;99.90
39951;DHT22;25629;51.444;-2.606;2022-10-16T05:21:47;11.10;99.90
39951;DHT22;25629;51.444;-2.606;2022-10-16T05:24:13;11.20;99.90
39951;DHT22;25629;51.444;-2.606;2022-10-16T05:26:39;11.10;99.90
39951;DHT22;25629;51.444;-2.606;2022-10-16T05:29:05;11.20;99.90
39951;DHT22;25629;51.444;-2.606;2022-10-16T05:31:31;11.10;99.90
39951;DHT22;25629;51.444;-2.606;2022-10-16T05:34:00;11.10;99.90
39951;DHT22;25629;51.444;-2.606;2022-10-16T05:36:26;11.10;99.90
39951;DHT22;25629;51.444;-2.606;2022-10-16T05:38:52;11.00;99.90
39951;DHT22;25629;51.444;-2.606;2022-10-16T05:41:18;11.00;99.90
39951;DHT22;25629;51.444;-2.606;2022-10-16T05:43:48;11.00;99.90
39951;DHT22;25629;51.444;-2.606;2022-10-16T05:46:14;11.00;99.90
39951;DHT22;25629;51.444;-2.606;2022-10-16T05:48:40;11.00;99.90
39951;DHT22;25629;51.444;-2.606;2022-10-16T05:51:07;11.00;99.90
39951;DHT22;25629;51.444;-2.606;2022-10-16T05:53:35;11.00;99.90
39951;DHT22;25629;51.444;-2.606;2022-10-16T05:56:02;11.00;99.90
39951;DHT22;25629;51.444;-2.606;2022-10-16T05:58:30;11.00;99.90
39951;DHT22;25629;51.444;-2.606;2022-10-16T06:00:59;11.00;99.90
39951;DHT22;25629;51.444;-2.606;2022-10-16T06:03:25;11.00;99.90
39951;DHT22;25629;51.444;-2.606;2022-10-16T06:05:51;11.00;99.90
39951;DHT22;25629;51.444;-2.606;2022-10-16T06:08:18;11.10;99.90
39951;DHT22;25629;51.444;-2.606;2022-10-16T06:10:44;11.10;99.90
39951;DHT22;25629;51.444;-2.606;2022-10-16T06:13:11;11.10;99.90
39951;DHT22;25629;51.444;-2.606;2022-10-16T06:15:38;11.10;99.90
39951;DHT22;25629;51.444;-2.606;2022-10-16T06:18:05;11.20;99.90
39951;DHT22;25629;51.444;-2.606;2022-10-16T06:20:31;11.10;99.90
39951;DHT22;25629;51.444;-2.606;2022-10-16T06:22:57;11.20;99.90
39951;DHT22;25629;51.444;-2.606;2022-10-16T06:25:23;11.10;99.90
39951;DHT22;25629;51.444;-2.606;2022-10-16T06:27:49;11.10;99.90
39951;DHT22;25629;51.444;-2.606;2022-10-16T06:30:14;11.10;99.90
39951;DHT22;25629;51.444;-2.606;2022-10-16T06:32:40;11.10;99.90
39951;DHT22;25629;51.444;-2.606;2022-10-16T06:35:06;11.10;99.90
39951;DHT22;25629;51.444;-2.606;2022-10-16T06:37:32;11.10;99.90
39951;DHT22;25629;51.444;-2.606;2022-10-16T06:39:58;11.10;99.90
39951;DHT22;25629;51.444;-2.606;2022-10-16T06:42:25;11.10;99.90
39951;DHT22;25629;51.444;-2.606;2022-10-16T06:44:51;11.00;99.90
39951;DHT22;25629;51.444;-2.606;2022-10-16T06:47:17;11.00;99.90
39951;DHT22;25629;51.444;-2.606;2022-10-16T06:49:43;11.00;99.90
39951;DHT22;25629;51.444;-2.606;2022-10-16T06:52:09;11.00;99.90
39951;DHT22;25629;51.444;-2.606;2022-10-16T06:54:34;10.90;99.90
39951;DHT22;25629;51.444;-2.606;2022-10-16T06:57:00;10.80;99.90
39951;DHT22;25629;51.444;-2.606;2022-10-16T06:59:27;10.70;99.90
39951;DHT22;25629;51.444;-2.606;2022-10-16T07:01:53;10.70;99.90
39951;DHT22;25629;51.444;-2.606;2022-10-16T07:04:19;10.60;99.90
39951;DHT22;25629;51.444;-2.606;2022-10-16T07:06:44;10.50;99.90
39951;DHT22;25629;51.444;-2.606;2022-10-16T07:09:11;10.50;99.90
39951;DHT22;25629;51.444;-2.606;2022-10-16T07:11:37;10.50;99.90
39951;DHT22;25629;51.444;-2.606;2022-10-16T07:14:04;10.50;99.90
39951;DHT22;25629;51.444;-2.606;2022-10-16T07:16:30;10.50;99.90
39951;DHT22;25629;51.444;-2.606;2022-10-16T07:18:58;10.50;99.90
39951;DHT22;25629;51.444;-2.606;2022-10-16T07:21:26;10.50;99.90
39951;DHT22;25629;51.444;-2.606;2022-10-16T07:23:54;10.60;99.90
39951;DHT22;25629;51.444;-2.606;2022-10-16T07:26:21;10.60;99.90
39951;DHT22;25629;51.444;-2.606;2022-10-16T07:28:47;10.60;99.90
39951;DHT22;25629;51.444;-2.606;2022-10-16T07:31:14;10.50;99.90
39951;DHT22;25629;51.444;-2.606;2022-10-16T07:33:41;10.50;99.90
39951;DHT22;25629;51.444;-2.606;2022-10-16T07:36:08;10.50;99.90
39951;DHT22;25629;51.444;-2.606;2022-10-16T07:38:34;10.40;99.90
39951;DHT22;25629;51.444;-2.606;2022-10-16T07:41:02;10.40;99.90
39951;DHT22;25629;51.444;-2.606;2022-10-16T07:43:28;10.40;99.90
39951;DHT22;25629;51.444;-2.606;2022-10-16T07:45:55;10.50;99.90
39951;DHT22;25629;51.444;-2.606;2022-10-16T07:48:21;10.60;99.90
39951;DHT22;25629;51.444;-2.606;2022-10-16T07:50:47;10.70;99.90
39951;DHT22;25629;51.444;-2.606;2022-10-16T07:53:13;10.80;99.90
39951;DHT22;25629;51.444;-2.606;2022-10-16T07:55:39;10.80;99.90
39951;DHT22;25629;51.444;-2.606;2022-10-16T07:58:05;10.90;99.90
39951;DHT22;25629;51.444;-2.606;2022-10-16T08:00:31;11.00;99.90
39951;DHT22;25629;51.444;-2.606;2022-10-16T08:02:57;11.10;99.90
39951;DHT22;25629;51.444;-2.606;2022-10-16T08:05:29;11.30;99.90
39951;DHT22;25629;51.444;-2.606;2022-10-16T08:07:56;11.40;99.90
39951;DHT22;25629;51.444;-2.606;2022-10-16T08:10:24;11.60;99.90
39951;DHT22;25629;51.444;-2.606;2022-10-16T08:12:51;11.80;99.90
39951;DHT22;25629;51.444;-2.606;2022-10-16T08:15:17;11.90;99.90
39951;DHT22;25629;51.444;-2.606;2022-10-16T08:17:43;12.10;99.90
39951;DHT22;25629;51.444;-2.606;2022-10-16T08:20:10;12.20;99.90
39951;DHT22;25629;51.444;-2.606;2022-10-16T08:22:35;12.30;99.90
39951;DHT22;25629;51.444;-2.606;2022-10-16T08:25:01;12.50;99.90
39951;DHT22;25629;51.444;-2.606;2022-10-16T08:27:36;12.60;99.90
39951;DHT22;25629;51.444;-2.606;2022-10-16T08:30:02;12.80;99.90
39951;DHT22;25629;51.444;-2.606;2022-10-16T08:32:28;12.90;99.90
39951;DHT22;25629;51.444;-2.606;2022-10-16T08:34:54;13.10;99.90
39951;DHT22;25629;51.444;-2.606;2022-10-16T08:37:19;13.30;99.90
39951;DHT22;25629;51.444;-2.606;2022-10-16T08:39:45;13.40;99.90
39951;DHT22;25629;51.444;-2.606;2022-10-16T08:50:30;14.50;99.90
39951;DHT22;25629;51.444;-2.606;2022-10-16T08:52:57;14.70;99.90
39951;DHT22;25629;51.444;-2.606;2022-10-16T08:57:59;14.90;99.90
39951;DHT22;25629;51.444;-2.606;2022-10-16T09:00:26;15.20;99.90
39951;DHT22;25629;51.444;-2.606;2022-10-16T09:02:53;15.30;99.90
39951;DHT22;25629;51.444;-2.606;2022-10-16T09:08:53;15.40;99.90
39951;DHT22;25629;51.444;-2.606;2022-10-16T09:23:36;15.80;99.90
39951;DHT22;25629;51.444;-2.606;2022-10-16T09:25:39;16.10;99.90
39951;DHT22;25629;51.444;-2.606;2022-10-16T09:28:08;16.40;99.90
39951;DHT22;25629;51.444;-2.606;2022-10-16T09:30:34;16.50;99.90
39951;DHT22;25629;51.444;-2.606;2022-10-16T09:33:00;16.50;99.90
39951;DHT22;25629;51.444;-2.606;2022-10-16T09:38:01;17.00;99.90
39951;DHT22;25629;51.444;-2.606;2022-10-16T09:40:35;17.20;99.90
39951;DHT22;25629;51.444;-2.606;2022-10-16T09:45:39;17.90;99.90
39951;DHT22;25629;51.444;-2.606;2022-10-16T09:48:13;17.80;99.90
39951;DHT22;25629;51.444;-2.606;2022-10-16T09:50:44;17.70;99.90
39951;DHT22;25629;51.444;-2.606;2022-10-16T09:53:20;17.90;99.90
39951;DHT22;25629;51.444;-2.606;2022-10-16T09:55:49;18.60;99.90
39951;DHT22;25629;51.444;-2.606;2022-10-16T09:58:15;19.10;99.90
39951;DHT22;25629;51.444;-2.606;2022-10-16T10:00:41;19.30;99.90
39951;DHT22;25629;51.444;-2.606;2022-10-16T10:03:11;19.30;99.90
39951;DHT22;25629;51.444;-2.606;2022-10-16T10:05:39;19.00;99.90
39951;DHT22;25629;51.444;-2.606;2022-10-16T10:08:06;18.80;99.90
39951;DHT22;25629;51.444;-2.606;2022-10-16T10:10:38;18.50;99.90
39951;DHT22;25629;51.444;-2.606;2022-10-16T10:13:21;18.30;99.90
39951;DHT22;25629;51.444;-2.606;2022-10-16T10:15:47;18.30;99.90
39951;DHT22;25629;51.444;-2.606;2022-10-16T10:18:18;18.30;99.90
39951;DHT22;25629;51.444;-2.606;2022-10-16T10:20:45;18.30;99.90
39951;DHT22;25629;51.444;-2.606;2022-10-16T10:23:22;18.30;99.90
39951;DHT22;25629;51.444;-2.606;2022-10-16T10:26:17;18.40;99.90
39951;DHT22;25629;51.444;-2.606;2022-10-16T10:28:55;18.60;99.90
39951;DHT22;25629;51.444;-2.606;2022-10-16T10:37:05;19.30;99.90
39951;DHT22;25629;51.444;-2.606;2022-10-16T10:39:41;19.40;99.90
39951;DHT22;25629;51.444;-2.606;2022-10-16T10:42:50;19.30;99.90
39951;DHT22;25629;51.444;-2.606;2022-10-16T10:45:37;19.10;99.90
39951;DHT22;25629;51.444;-2.606;2022-10-16T10:48:31;19.20;99.90
39951;DHT22;25629;51.444;-2.606;2022-10-16T10:51:01;19.30;99.90
39951;DHT22;25629;51.444;-2.606;2022-10-16T10:53:55;19.40;99.90
39951;DHT22;25629;51.444;-2.606;2022-10-16T10:56:47;19.50;99.90
39951;DHT22;25629;51.444;-2.606;2022-10-16T10:59:32;19.70;99.90
39951;DHT22;25629;51.444;-2.606;2022-10-16T11:08:13;19.90;99.90
39951;DHT22;25629;51.444;-2.606;2022-10-16T11:10:50;19.80;99.90
39951;DHT22;25629;51.444;-2.606;2022-10-16T11:13:39;19.80;99.90
39951;DHT22;25629;51.444;-2.606;2022-10-16T11:16:28;20.20;99.90
39951;DHT22;25629;51.444;-2.606;2022-10-16T11:19:22;20.50;99.40
39951;DHT22;25629;51.444;-2.606;2022-10-16T11:22:31;20.30;98.50
39951;DHT22;25629;51.444;-2.606;2022-10-16T11:25:13;20.10;98.90
39951;DHT22;25629;51.444;-2.606;2022-10-16T11:28:05;20.20;98.50
39951;DHT22;25629;51.444;-2.606;2022-10-16T11:30:39;19.90;99.00
39951;DHT22;25629;51.444;-2.606;2022-10-16T11:35:59;19.90;99.90
39951;DHT22;25629;51.444;-2.606;2022-10-16T11:39:02;20.10;99.70
39951;DHT22;25629;51.444;-2.606;2022-10-16T11:41:49;20.30;99.60
39951;DHT22;25629;51.444;-2.606;2022-10-16T11:49:51;20.10;98.60
39951;DHT22;25629;51.444;-2.606;2022-10-16T11:52:38;20.20;99.40
39951;DHT22;25629;51.444;-2.606;2022-10-16T11:55:55;20.50;97.80
39951;DHT22;25629;51.444;-2.606;2022-10-16T12:00:58;20.40;97.90
39951;DHT22;25629;51.444;-2.606;2022-10-16T12:03:42;20.00;97.90
39951;DHT22;25629;51.444;-2.606;2022-10-16T12:06:43;20.10;99.40
39951;DHT22;25629;51.444;-2.606;2022-10-16T12:09:25;20.30;98.50
39951;DHT22;25629;51.444;-2.606;2022-10-16T12:11:52;20.20;98.30
39951;DHT22;25629;51.444;-2.606;2022-10-16T12:14:20;20.40;98.30
39951;DHT22;25629;51.444;-2.606;2022-10-16T12:16:57;20.60;97.90
39951;DHT22;25629;51.444;-2.606;2022-10-16T12:19:29;20.10;98.10
39951;DHT22;25629;51.444;-2.606;2022-10-16T12:22:01;20.00;98.70
39951;DHT22;25629;51.444;-2.606;2022-10-16T12:26:59;19.80;99.20
39951;DHT22;25629;51.444;-2.606;2022-10-16T12:29:37;20.10;98.80
39951;DHT22;25629;51.444;-2.606;2022-10-16T12:32:05;20.80;98.70
39951;DHT22;25629;51.444;-2.606;2022-10-16T12:34:44;21.00;97.80
39951;DHT22;25629;51.444;-2.606;2022-10-16T12:37:22;20.80;98.00
39951;DHT22;25629;51.444;-2.606;2022-10-16T12:39:49;20.60;98.10
39951;DHT22;25629;51.444;-2.606;2022-10-16T12:44:48;20.60;98.30
39951;DHT22;25629;51.444;-2.606;2022-10-16T12:47:22;20.50;98.20
39951;DHT22;25629;51.444;-2.606;2022-10-16T12:49:53;20.00;98.60
39951;DHT22;25629;51.444;-2.606;2022-10-16T12:52:34;19.40;99.50
39951;DHT22;25629;51.444;-2.606;2022-10-16T12:55:00;19.10;99.80
39951;DHT22;25629;51.444;-2.606;2022-10-16T13:03:02;19.80;99.60
39951;DHT22;25629;51.444;-2.606;2022-10-16T13:08:06;19.90;99.80
39951;DHT22;25629;51.444;-2.606;2022-10-16T13:10:51;19.90;99.90
39951;DHT22;25629;51.444;-2.606;2022-10-16T13:14:00;20.20;99.40
39951;DHT22;25629;51.444;-2.606;2022-10-16T13:27:44;20.50;99.50
39951;DHT22;25629;51.444;-2.606;2022-10-16T13:30:23;20.60;99.10
39951;DHT22;25629;51.444;-2.606;2022-10-16T13:33:36;20.60;98.90
39951;DHT22;25629;51.444;-2.606;2022-10-16T13:35:51;20.50;98.50
39951;DHT22;25629;51.444;-2.606;2022-10-16T13:38:20;20.50;98.50
39951;DHT22;25629;51.444;-2.606;2022-10-16T13:43:28;20.10;98.20
39951;DHT22;25629;51.444;-2.606;2022-10-16T13:48:20;19.30;98.60
39951;DHT22;25629;51.444;-2.606;2022-10-16T13:50:46;19.50;98.90
39951;DHT22;25629;51.444;-2.606;2022-10-16T13:53:12;19.80;99.30
39951;DHT22;25629;51.444;-2.606;2022-10-16T13:55:39;20.10;98.10
39951;DHT22;25629;51.444;-2.606;2022-10-16T13:58:08;20.20;98.30
39951;DHT22;25629;51.444;-2.606;2022-10-16T14:00:34;20.30;98.10
39951;DHT22;25629;51.444;-2.606;2022-10-16T14:03:06;20.50;98.00
39951;DHT22;25629;51.444;-2.606;2022-10-16T14:05:33;20.50;98.00
39951;DHT22;25629;51.444;-2.606;2022-10-16T14:08:00;20.50;98.50
39951;DHT22;25629;51.444;-2.606;2022-10-16T14:10:31;20.20;98.10
39951;DHT22;25629;51.444;-2.606;2022-10-16T14:13:07;20.00;98.70
39951;DHT22;25629;51.444;-2.606;2022-10-16T14:15:35;20.00;98.80
39951;DHT22;25629;51.444;-2.606;2022-10-16T14:18:02;20.20;98.90
39951;DHT22;25629;51.444;-2.606;2022-10-16T14:20:31;20.50;98.30
39951;DHT22;25629;51.444;-2.606;2022-10-16T14:23:04;20.00;98.80
39951;DHT22;25629;51.444;-2.606;2022-10-16T14:25:32;19.60;99.70
39951;DHT22;25629;51.444;-2.606;2022-10-16T14:30:35;19.20;99.90
39951;DHT22;25629;51.444;-2.606;2022-10-16T14:33:18;19.10;99.90
39951;DHT22;25629;51.444;-2.606;2022-10-16T14:35:45;19.10;99.80
39951;DHT22;25629;51.444;-2.606;2022-10-16T14:38:19;18.90;99.90
39951;DHT22;25629;51.444;-2.606;2022-10-16T14:40:47;18.80;99.90
39951;DHT22;25629;51.444;-2.606;2022-10-16T14:45:56;18.50;99.90
39951;DHT22;25629;51.444;-2.606;2022-10-16T14:48:22;18.40;99.90
39951;DHT22;25629;51.444;-2.606;2022-10-16T14:50:48;18.30;99.90
39951;DHT22;25629;51.444;-2.606;2022-10-16T14:53:14;18.40;99.90
39951;DHT22;25629;51.444;-2.606;2022-10-16T14:55:41;18.50;99.90
39951;DHT22;25629;51.444;-2.606;2022-10-16T14:58:15;18.50;99.90
39951;DHT22;25629;51.444;-2.606;2022-10-16T15:00:42;18.40;99.90
39951;DHT22;25629;51.444;-2.606;2022-10-16T15:03:08;18.40;99.90
39951;DHT22;25629;51.444;-2.606;2022-10-16T15:05:33;18.40;99.90
39951;DHT22;25629;51.444;-2.606;2022-10-16T15:07:59;18.30;99.90
39951;DHT22;25629;51.444;-2.606;2022-10-16T15:10:25;18.20;99.90
39951;DHT22;25629;51.444;-2.606;2022-10-16T15:12:52;18.10;99.90
39951;DHT22;25629;51.444;-2.606;2022-10-16T15:15:34;18.00;99.90
39951;DHT22;25629;51.444;-2.606;2022-10-16T15:18:01;17.80;99.90
39951;DHT22;25629;51.444;-2.606;2022-10-16T15:20:30;17.80;99.90
39951;DHT22;25629;51.444;-2.606;2022-10-16T15:23:03;17.60;99.90
39951;DHT22;25629;51.444;-2.606;2022-10-16T15:28:02;17.50;99.90
39951;DHT22;25629;51.444;-2.606;2022-10-16T15:30:28;17.50;99.90
39951;DHT22;25629;51.444;-2.606;2022-10-16T15:32:54;17.60;99.90
39951;DHT22;25629;51.444;-2.606;2022-10-16T15:35:19;17.60;99.90
39951;DHT22;25629;51.444;-2.606;2022-10-16T15:37:46;17.60;99.90
39951;DHT22;25629;51.444;-2.606;2022-10-16T15:40:13;17.60;99.90
39951;DHT22;25629;51.444;-2.606;2022-10-16T15:42:39;17.60;99.90
39951;DHT22;25629;51.444;-2.606;2022-10-16T15:45:05;17.50;99.90
39951;DHT22;25629;51.444;-2.606;2022-10-16T15:47:32;17.50;99.90
39951;DHT22;25629;51.444;-2.606;2022-10-16T15:49:58;17.50;99.90
39951;DHT22;25629;51.444;-2.606;2022-10-16T15:52:24;17.50;99.90
39951;DHT22;25629;51.444;-2.606;2022-10-16T15:54:50;17.40;99.90
39951;DHT22;25629;51.444;-2.606;2022-10-16T15:57:16;17.40;99.90
39951;DHT22;25629;51.444;-2.606;2022-10-16T15:59:42;17.40;99.90
39951;DHT22;25629;51.444;-2.606;2022-10-16T16:02:09;17.20;99.90
39951;DHT22;25629;51.444;-2.606;2022-10-16T16:04:34;17.20;99.90
39951;DHT22;25629;51.444;-2.606;2022-10-16T16:07:00;17.20;99.90
39951;DHT22;25629;51.444;-2.606;2022-10-16T16:09:29;17.10;99.90
39951;DHT22;25629;51.444;-2.606;2022-10-16T16:11:55;17.00;99.90
39951;DHT22;25629;51.444;-2.606;2022-10-16T16:14:20;17.00;99.90
39951;DHT22;25629;51.444;-2.606;2022-10-16T16:16:46;16.90;99.90
39951;DHT22;25629;51.444;-2.606;2022-10-16T16:19:12;17.00;99.90
39951;DHT22;25629;51.444;-2.606;2022-10-16T16:21:38;16.90;99.90
39951;DHT22;25629;51.444;-2.606;2022-10-16T16:24:04;16.80;99.90
39951;DHT22;25629;51.444;-2.606;2022-10-16T16:26:34;16.80;99.90
39951;DHT22;25629;51.444;-2.606;2022-10-16T16:29:03;16.70;99.90
39951;DHT22;25629;51.444;-2.606;2022-10-16T16:31:30;16.70;99.90
39951;DHT22;25629;51.444;-2.606;2022-10-16T16:33:56;16.70;99.90
39951;DHT22;25629;51.444;-2.606;2022-10-16T16:36:23;16.70;99.90
39951;DHT22;25629;51.444;-2.606;2022-10-16T16:38:50;16.70;99.90
39951;DHT22;25629;51.444;-2.606;2022-10-16T16:41:17;16.60;99.90
39951;DHT22;25629;51.444;-2.606;2022-10-16T16:43:43;16.50;99.90
39951;DHT22;25629;51.444;-2.606;2022-10-16T16:46:10;16.40;99.90
39951;DHT22;25629;51.444;-2.606;2022-10-16T16:48:37;16.40;99.90
39951;DHT22;25629;51.444;-2.606;2022-10-16T16:51:12;16.30;99.90
39951;DHT22;25629;51.444;-2.606;2022-10-16T16:53:46;16.20;99.90
39951;DHT22;25629;51.444;-2.606;2022-10-16T16:56:13;16.10;99.90
39951;DHT22;25629;51.444;-2.606;2022-10-16T16:58:39;16.00;99.90
39951;DHT22;25629;51.444;-2.606;2022-10-16T17:01:07;16.00;99.90
39951;DHT22;25629;51.444;-2.606;2022-10-16T17:03:35;15.90;99.90
39951;DHT22;25629;51.444;-2.606;2022-10-16T17:06:05;15.80;99.90
39951;DHT22;25629;51.444;-2.606;2022-10-16T17:08:31;15.80;99.90
39951;DHT22;25629;51.444;-2.606;2022-10-16T17:10:57;15.80;99.90
39951;DHT22;25629;51.444;-2.606;2022-10-16T17:13:33;15.80;99.90
39951;DHT22;25629;51.444;-2.606;2022-10-16T17:16:01;15.80;99.90
39951;DHT22;25629;51.444;-2.606;2022-10-16T17:18:27;15.70;99.90